createdAt,value
2019-01-19T00:00:22.917Z,101125.88
2019-01-19T00:03:32.035Z,101130.23
2019-01-19T00:06:35.600Z,101125.46
2019-01-19T00:09:37.812Z,101121.59
2019-01-19T00:12:31.247Z,101127.22
2019-01-19T00:18:42.851Z,101126.80
2019-01-19T00:21:32.729Z,101127.66
2019-01-19T00:27:37.975Z,101125.61
2019-01-19T00:30:31.685Z,101135.83
2019-01-19T00:33:28.582Z,101131.95
2019-01-19T00:36:27.999Z,101132.37
2019-01-19T00:39:21.027Z,101130.20
2019-01-19T00:42:20.263Z,101128.91
2019-01-19T00:45:19.676Z,101130.20
2019-01-19T00:48:18.850Z,101126.75
2019-01-19T00:51:17.999Z,101127.63
2019-01-19T00:54:17.539Z,101125.91
2019-01-19T00:57:16.736Z,101126.78
2019-01-19T01:00:12.710Z,101130.26
2019-01-19T01:03:05.127Z,101127.19
2019-01-19T01:05:58.100Z,101127.66
2019-01-19T01:08:51.466Z,101125.03
2019-01-19T01:11:38.884Z,101118.09
2019-01-19T01:14:35.323Z,101118.10
2019-01-19T01:17:25.581Z,101126.80
2019-01-19T01:20:22.068Z,101122.47
2019-01-19T01:23:27.849Z,101126.81
2019-01-19T01:26:33.454Z,101130.27
2019-01-19T01:29:25.745Z,101125.94
2019-01-19T01:32:19.143Z,101127.25
2019-01-19T01:35:20.343Z,101122.05
2019-01-19T01:41:49.126Z,101126.73
2019-01-19T01:44:44.815Z,101128.52
2019-01-19T01:47:50.109Z,101128.50
2019-01-19T01:50:40.201Z,101121.14
2019-01-19T01:53:42.595Z,101121.58
2019-01-19T01:56:29.677Z,101125.08
2019-01-19T01:59:19.287Z,101118.98
2019-01-19T02:02:15.689Z,101111.63
2019-01-19T02:05:02.890Z,101117.28
2019-01-19T02:07:55.188Z,101118.14
2019-01-19T02:17:21.984Z,101112.05
2019-01-19T02:20:21.945Z,101100.36
2019-01-19T02:26:30.483Z,101108.19
2019-01-19T02:29:27.195Z,101105.59
2019-01-19T02:32:29.706Z,101103.41
2019-01-19T02:35:36.852Z,101105.59
2019-01-19T02:38:45.416Z,101103.44
2019-01-19T02:41:40.785Z,101098.67
2019-01-19T02:44:46.486Z,101103.00
2019-01-19T02:54:35.556Z,101098.59
2019-01-19T03:04:40.759Z,101095.19
2019-01-19T03:07:28.894Z,101091.73
2019-01-19T03:10:25.561Z,101091.89
2019-01-19T03:13:48.101Z,101088.25
2019-01-19T03:23:07.857Z,101091.61
2019-01-19T03:26:05.532Z,101086.90
2019-01-19T03:29:07.511Z,101086.80
2019-01-19T03:32:11.231Z,101089.01
2019-01-19T03:35:10.370Z,101089.48
2019-01-19T03:41:50.068Z,101080.02
2019-01-19T03:44:48.733Z,101081.91
2019-01-19T03:47:39.811Z,101081.28
2019-01-19T03:50:41.398Z,101081.76
2019-01-19T03:53:40.976Z,101089.16
2019-01-19T03:56:56.440Z,101083.95
2019-01-19T03:59:50.034Z,101083.08
2019-01-19T04:06:12.434Z,101088.28
2019-01-19T04:09:01.214Z,101086.56
2019-01-19T04:11:48.662Z,101090.46
2019-01-19T04:14:36.809Z,101087.84
2019-01-19T04:17:27.268Z,101087.30
2019-01-19T04:20:43.954Z,101089.15
2019-01-19T04:23:31.904Z,101093.47
2019-01-19T04:26:19.648Z,101088.30
2019-01-19T04:29:08.402Z,101090.45
2019-01-19T04:31:57.657Z,101082.64
2019-01-19T04:34:45.627Z,101090.39
2019-01-19T04:37:34.670Z,101086.12
2019-01-19T04:40:22.270Z,101086.97
2019-01-19T04:43:10.081Z,101080.48
2019-01-19T04:45:57.779Z,101086.52
2019-01-19T04:48:45.264Z,101083.03
2019-01-19T04:51:33.088Z,101078.73
2019-01-19T04:54:20.467Z,101082.62
2019-01-19T04:57:15.971Z,101081.30
2019-01-19T05:00:13.980Z,101076.92
2019-01-19T05:03:01.708Z,101077.75
2019-01-19T05:05:48.883Z,101071.23
2019-01-19T05:08:52.412Z,101070.36
2019-01-19T05:11:40.788Z,101065.14
2019-01-19T05:14:28.104Z,101065.53
2019-01-19T05:17:23.710Z,101068.13
2019-01-19T05:20:19.277Z,101070.68
2019-01-19T05:23:06.554Z,101078.89
2019-01-19T05:25:53.515Z,101071.92
2019-01-19T05:28:40.923Z,101077.54
2019-01-19T05:31:29.354Z,101081.39
2019-01-19T05:34:24.794Z,101082.67
2019-01-19T05:43:32.180Z,101077.32
2019-01-19T05:46:33.269Z,101078.83
2019-01-19T05:49:20.583Z,101088.23
2019-01-19T05:52:09.130Z,101079.98
2019-01-19T05:54:56.245Z,101077.80
2019-01-19T05:57:43.604Z,101072.53
2019-01-19T06:00:31.148Z,101078.78
2019-01-19T06:03:18.575Z,101079.55
2019-01-19T06:15:33.442Z,101091.42
2019-01-19T06:18:36.027Z,101090.11
2019-01-19T06:21:23.544Z,101094.37
2019-01-19T06:24:11.622Z,101094.36
2019-01-19T06:36:17.304Z,101093.77
2019-01-19T06:39:04.588Z,101092.45
2019-01-19T06:41:52.287Z,101095.45
2019-01-19T06:44:39.680Z,101089.34
2019-01-19T06:47:26.855Z,101092.35
2019-01-19T06:53:20.362Z,101093.06
2019-01-19T06:56:08.697Z,101095.28
2019-01-19T06:58:56.100Z,101093.42
2019-01-19T07:01:43.807Z,101090.88
2019-01-19T07:04:32.295Z,101097.45
2019-01-19T07:07:20.742Z,101103.79
2019-01-19T07:10:20.581Z,101101.16
2019-01-19T07:13:11.975Z,101101.52
2019-01-19T07:19:16.575Z,101101.67
2019-01-19T07:22:03.804Z,101099.55
2019-01-19T07:24:50.965Z,101102.64
2019-01-19T07:30:44.637Z,101110.70
2019-01-19T07:33:31.878Z,101103.48
2019-01-19T07:36:19.240Z,101108.33
2019-01-19T07:39:06.870Z,101107.38
2019-01-19T07:41:53.917Z,101107.80
2019-01-19T07:44:43.835Z,101109.48
2019-01-19T07:47:31.188Z,101110.82
2019-01-19T07:50:19.003Z,101112.56
2019-01-19T07:53:06.542Z,101111.73
2019-01-19T07:55:54.802Z,101113.55
2019-01-19T07:58:42.506Z,101120.63
2019-01-19T08:01:29.923Z,101122.13
2019-01-19T08:04:18.243Z,101118.19
2019-01-19T08:07:05.436Z,101122.08
2019-01-19T08:09:52.451Z,101121.22
2019-01-19T08:12:39.897Z,101123.00
2019-01-19T08:15:27.281Z,101121.31
2019-01-19T08:18:14.846Z,101120.46
2019-01-19T08:21:02.895Z,101119.45
2019-01-19T08:23:50.613Z,101119.33
2019-01-19T08:26:38.358Z,101120.63
2019-01-19T08:29:26.085Z,101119.36
2019-01-19T08:32:14.218Z,101117.23
2019-01-19T08:35:02.353Z,101124.59
2019-01-19T08:37:49.522Z,101113.79
2019-01-19T08:40:36.683Z,101120.73
2019-01-19T08:43:24.673Z,101119.89
2019-01-19T08:46:11.912Z,101120.31
2019-01-19T08:48:59.051Z,101124.66
2019-01-19T08:51:46.472Z,101120.34
2019-01-19T08:54:33.994Z,101119.05
2019-01-19T08:57:21.056Z,101116.88
2019-01-19T09:00:08.575Z,101117.73
2019-01-19T09:02:56.054Z,101115.30
2019-01-19T09:05:43.477Z,101114.19
2019-01-19T09:08:30.611Z,101115.92
2019-01-19T09:11:17.738Z,101114.58
2019-01-19T09:14:04.931Z,101104.72
2019-01-19T09:16:54.710Z,101108.32
2019-01-19T09:19:42.159Z,101107.64
2019-01-19T09:22:29.615Z,101106.09
2019-01-19T09:25:16.883Z,101113.11
2019-01-19T09:28:04.548Z,101111.37
2019-01-19T09:30:52.675Z,101114.86
2019-01-19T09:33:39.899Z,101110.08
2019-01-19T09:36:27.256Z,101114.86
2019-01-19T09:39:16.896Z,101112.05
2019-01-19T09:42:04.065Z,101114.16
2019-01-19T09:44:51.461Z,101112.92
2019-01-19T09:47:38.662Z,101116.95
2019-01-19T09:50:28.861Z,101111.72
2019-01-19T09:53:16.473Z,101113.38
2019-01-19T09:56:04.112Z,101112.92
2019-01-19T09:58:51.527Z,101116.11
2019-01-19T10:01:39.019Z,101109.53
2019-01-19T10:04:26.017Z,101106.81
2019-01-19T10:07:13.392Z,101112.78
2019-01-19T10:10:00.891Z,101102.31
2019-01-19T10:12:48.459Z,101107.97
2019-01-19T10:15:35.719Z,101108.83
2019-01-19T10:18:25.826Z,101104.40
2019-01-19T10:21:13.145Z,101108.25
2019-01-19T10:24:01.679Z,101102.51
2019-01-19T10:26:49.260Z,101101.63
2019-01-19T10:32:47.924Z,101095.89
2019-01-19T10:35:33.442Z,101093.16
2019-01-19T10:38:20.950Z,101089.43
2019-01-19T10:41:08.410Z,101087.02
2019-01-19T10:43:55.813Z,101085.02
2019-01-19T10:46:43.482Z,101077.30
2019-01-19T10:49:31.197Z,101077.48
2019-01-19T10:52:18.515Z,101078.61
2019-01-19T10:55:05.926Z,101075.03
2019-01-19T10:58:08.848Z,101071.65
2019-01-19T11:00:56.037Z,101068.19
2019-01-19T11:03:43.815Z,101064.02
2019-01-19T11:06:31.192Z,101060.87
2019-01-19T11:09:18.349Z,101064.70
2019-01-19T11:12:05.679Z,101059.73
2019-01-19T11:14:54.050Z,101044.41
2019-01-19T11:17:41.449Z,101053.79
2019-01-19T11:23:39.779Z,101043.65
2019-01-19T11:26:22.630Z,101043.14
2019-01-19T11:29:16.393Z,101047.81
2019-01-19T11:32:04.971Z,101042.09
2019-01-19T11:34:52.444Z,101039.41
2019-01-19T11:37:39.970Z,101037.44
2019-01-19T11:40:27.286Z,101029.95
2019-01-19T11:43:14.448Z,101029.88
2019-01-19T11:46:05.337Z,101029.55
2019-01-19T11:48:53.499Z,101022.56
2019-01-19T11:51:42.440Z,101021.52
2019-01-19T11:54:30.032Z,101006.72
2019-01-19T12:00:35.415Z,101012.08
2019-01-19T12:03:22.845Z,101005.32
2019-01-19T12:06:11.190Z,101005.87
2019-01-19T12:08:58.204Z,101006.73
2019-01-19T12:11:46.855Z,101008.24
2019-01-19T12:14:34.382Z,101007.39
2019-01-19T12:17:22.001Z,101007.03
2019-01-19T12:20:21.483Z,101010.89
2019-01-19T12:23:08.886Z,101004.66
2019-01-19T12:25:56.336Z,100998.83
2019-01-19T12:28:43.401Z,100995.50
2019-01-19T12:31:30.518Z,100994.86
2019-01-19T12:34:20.467Z,100993.77
2019-01-19T12:37:08.408Z,100986.17
2019-01-19T12:39:55.507Z,100987.20
2019-01-19T12:42:43.132Z,100983.11
2019-01-19T12:45:30.880Z,100982.30
2019-01-19T12:48:18.141Z,100974.12
2019-01-19T12:51:05.792Z,100976.75
2019-01-19T12:53:52.868Z,100975.18
2019-01-19T12:56:40.146Z,100968.20
2019-01-19T12:59:27.303Z,100965.01
2019-01-19T13:02:14.795Z,100967.61
2019-01-19T13:05:02.067Z,100965.05
2019-01-19T13:07:49.502Z,100959.80
2019-01-19T13:10:38.584Z,100964.23
2019-01-19T13:13:26.147Z,100961.14
2019-01-19T13:16:35.613Z,100952.41
2019-01-19T13:19:25.970Z,100951.66
2019-01-19T13:22:13.540Z,100949.18
2019-01-19T13:25:09.271Z,100944.02
2019-01-19T13:28:08.675Z,100937.47
2019-01-19T13:31:20.688Z,100935.20
2019-01-19T13:34:10.717Z,100935.84
2019-01-19T13:37:04.051Z,100926.66
2019-01-19T13:39:52.694Z,100924.13
2019-01-19T13:42:40.607Z,100926.14
2019-01-19T13:45:33.897Z,100927.06
2019-01-19T13:48:36.354Z,100922.09
2019-01-19T13:51:29.455Z,100920.88
2019-01-19T13:54:22.050Z,100919.84
2019-01-19T13:57:15.247Z,100918.15
2019-01-19T14:00:20.899Z,100914.43
2019-01-19T14:03:30.624Z,100909.61
2019-01-19T14:06:24.037Z,100909.73
2019-01-19T14:09:19.953Z,100900.22
2019-01-19T14:15:24.267Z,100893.17
2019-01-19T14:18:14.741Z,100888.85
2019-01-19T14:21:20.455Z,100887.61
2019-01-19T14:24:08.012Z,100887.50
2019-01-19T14:27:10.194Z,100888.08
2019-01-19T14:33:37.580Z,100884.98
2019-01-19T14:36:56.498Z,100886.02
2019-01-19T14:40:00.215Z,100884.90
2019-01-19T14:43:01.168Z,100879.36
2019-01-19T14:45:52.058Z,100883.55
2019-01-19T14:49:00.916Z,100880.50
2019-01-19T14:52:03.660Z,100879.58
2019-01-19T14:55:18.708Z,100877.67
2019-01-19T14:58:31.124Z,100870.98
2019-01-19T15:01:24.806Z,100864.77
2019-01-19T15:04:26.651Z,100862.80
2019-01-19T15:11:00.311Z,100862.03
2019-01-19T15:14:03.239Z,100856.75
2019-01-19T15:17:14.396Z,100851.25
2019-01-19T15:20:08.259Z,100854.39
2019-01-19T15:23:18.721Z,100854.02
2019-01-19T15:26:36.522Z,100850.51
2019-01-19T15:29:38.803Z,100856.04
2019-01-19T15:32:45.748Z,100848.02
2019-01-19T15:38:58.803Z,100851.65
2019-01-19T15:42:04.724Z,100849.67
2019-01-19T15:45:01.434Z,100843.80
2019-01-19T15:48:04.826Z,100846.98
2019-01-19T15:51:18.691Z,100848.03
2019-01-19T15:54:08.991Z,100848.68
2019-01-19T15:57:20.097Z,100842.86
2019-01-19T16:00:36.118Z,100847.82
2019-01-19T16:03:57.593Z,100849.35
2019-01-19T16:07:17.330Z,100847.36
2019-01-19T16:10:10.687Z,100845.33
2019-01-19T16:13:06.735Z,100845.14
2019-01-19T16:16:15.957Z,100842.39
2019-01-19T16:19:13.633Z,100843.32
2019-01-19T16:22:03.596Z,100845.66
2019-01-19T16:25:15.695Z,100842.71
2019-01-19T16:28:18.631Z,100846.77
2019-01-19T16:31:09.432Z,100844.23
2019-01-19T16:34:12.945Z,100845.62
2019-01-19T16:40:34.699Z,100841.98
2019-01-19T16:43:25.742Z,100841.64
2019-01-19T16:46:44.667Z,100841.38
2019-01-19T16:49:46.978Z,100845.44
2019-01-19T16:52:36.879Z,100842.98
2019-01-19T16:55:46.732Z,100845.65
2019-01-19T17:08:55.420Z,100834.69
2019-01-19T17:12:01.465Z,100836.48
2019-01-19T17:14:58.473Z,100831.75
2019-01-19T17:18:10.917Z,100838.27
2019-01-19T17:21:13.377Z,100835.71
2019-01-19T17:24:17.671Z,100828.16
2019-01-19T17:27:29.273Z,100826.89
2019-01-19T17:30:22.218Z,100841.77
2019-01-19T17:33:20.670Z,100835.28
2019-01-19T17:36:30.915Z,100835.80
2019-01-19T17:39:45.752Z,100838.02
2019-01-19T17:45:59.944Z,100838.79
2019-01-19T17:48:57.573Z,100835.78
2019-01-19T17:51:52.908Z,100837.52
2019-01-19T17:55:05.147Z,100839.72
2019-01-19T18:01:13.075Z,100841.80
2019-01-19T18:04:04.771Z,100840.11
2019-01-19T18:07:32.368Z,100841.06
2019-01-19T18:10:21.081Z,100841.56
2019-01-19T18:13:32.015Z,100838.09
2019-01-19T18:16:22.407Z,100829.69
2019-01-19T18:19:13.251Z,100839.69
2019-01-19T18:22:22.714Z,100835.05
2019-01-19T18:25:10.966Z,100829.47
2019-01-19T18:31:45.214Z,100833.48
2019-01-19T18:34:41.764Z,100840.01
2019-01-19T18:37:41.959Z,100830.98
2019-01-19T18:40:35.947Z,100833.89
2019-01-19T18:43:24.231Z,100839.15
2019-01-19T18:46:16.816Z,100833.55
2019-01-19T18:49:13.528Z,100831.83
2019-01-19T18:52:02.667Z,100824.16
2019-01-19T18:55:01.183Z,100827.88
2019-01-19T18:57:52.963Z,100823.23
2019-01-19T19:00:53.243Z,100826.58
2019-01-19T19:04:06.507Z,100817.09
2019-01-19T19:07:13.765Z,100821.45
2019-01-19T19:10:32.252Z,100819.31
2019-01-19T19:13:17.344Z,100814.14
2019-01-19T19:16:18.166Z,100814.61
2019-01-19T19:19:14.043Z,100816.78
2019-01-19T19:28:59.880Z,100813.84
2019-01-19T19:32:03.506Z,100820.63
2019-01-19T19:35:11.826Z,100818.06
2019-01-19T19:38:17.022Z,100814.20
2019-01-19T19:41:08.444Z,100818.98
2019-01-19T19:44:17.640Z,100817.67
2019-01-19T19:47:16.692Z,100815.55
2019-01-19T19:50:29.380Z,100814.67
2019-01-19T19:53:18.543Z,100819.88
2019-01-19T19:56:05.341Z,100812.51
2019-01-19T20:05:07.495Z,100804.73
2019-01-19T20:07:55.094Z,100803.45
2019-01-19T20:10:42.399Z,100808.97
2019-01-19T20:13:30.389Z,100803.88
2019-01-19T20:16:17.987Z,100805.19
2019-01-19T20:19:09.744Z,100805.19
2019-01-19T20:21:58.764Z,100806.03
2019-01-19T20:24:48.864Z,100808.64
2019-01-19T20:27:37.345Z,100808.62
2019-01-19T20:30:30.449Z,100806.91
2019-01-19T20:36:26.935Z,100802.58
2019-01-19T20:39:18.444Z,100807.34
2019-01-19T20:42:05.972Z,100809.09
2019-01-19T20:44:56.065Z,100804.74
2019-01-19T20:47:44.488Z,100794.31
2019-01-19T20:50:32.121Z,100796.11
2019-01-19T20:53:19.781Z,100796.09
2019-01-19T20:56:07.109Z,100801.30
2019-01-19T20:58:54.910Z,100796.09
2019-01-19T21:01:45.234Z,100793.50
2019-01-19T21:04:32.744Z,100792.62
2019-01-19T21:07:25.604Z,100794.36
2019-01-19T21:10:16.204Z,100793.47
2019-01-19T21:16:19.564Z,100787.39
2019-01-19T21:19:07.193Z,100794.75
2019-01-19T21:21:57.792Z,100792.99
2019-01-19T21:24:45.354Z,100790.84
2019-01-19T21:27:35.496Z,100784.00
2019-01-19T21:30:23.699Z,100792.16
2019-01-19T21:33:11.607Z,100784.84
2019-01-19T21:36:00.834Z,100788.27
2019-01-19T21:38:48.533Z,100785.73
2019-01-19T21:41:36.240Z,100789.13
2019-01-19T21:44:25.320Z,100795.16
2019-01-19T21:47:12.000Z,100795.98
2019-01-19T21:49:59.627Z,100792.06
2019-01-19T21:52:47.893Z,100790.30
2019-01-19T21:55:37.415Z,100788.11
2019-01-19T21:58:24.871Z,100784.66
2019-01-19T22:01:12.704Z,100788.06
2019-01-19T22:04:00.772Z,100783.71
2019-01-19T22:06:48.247Z,100781.36
2019-01-19T22:09:35.636Z,100779.91
2019-01-19T22:12:23.493Z,100777.28
2019-01-19T22:15:10.804Z,100779.86
2019-01-19T22:18:00.510Z,100780.69
2019-01-19T22:20:47.795Z,100777.66
2019-01-19T22:23:35.495Z,100780.47
2019-01-19T22:26:22.984Z,100783.75
2019-01-19T22:29:12.587Z,100781.98
2019-01-19T22:32:02.188Z,100777.23
2019-01-19T22:34:49.623Z,100785.39
2019-01-19T22:37:36.905Z,100783.66
2019-01-19T22:40:25.006Z,100784.04
2019-01-19T22:43:12.300Z,100786.19
2019-01-19T22:45:59.430Z,100782.25
2019-01-19T22:48:46.698Z,100780.91
2019-01-19T22:51:34.800Z,100780.34
2019-01-19T22:54:24.835Z,100778.41
2019-01-19T22:57:12.314Z,100778.31
2019-01-19T23:00:07.724Z,100780.88
2019-01-19T23:02:55.629Z,100779.47
2019-01-19T23:08:51.256Z,100780.02
2019-01-19T23:11:46.490Z,100773.50
2019-01-19T23:14:33.595Z,100770.47
2019-01-19T23:17:23.168Z,100775.17
2019-01-19T23:23:19.588Z,100769.11
2019-01-19T23:26:07.374Z,100769.03
2019-01-19T23:28:56.813Z,100761.87
2019-01-19T23:31:44.553Z,100769.98
2019-01-19T23:34:36.169Z,100769.53
2019-01-19T23:37:40.164Z,100768.59
2019-01-19T23:40:27.853Z,100768.31
2019-01-19T23:43:15.004Z,100763.50
2019-01-19T23:46:03.025Z,100769.03
2019-01-19T23:48:51.283Z,100770.27
2019-01-19T23:51:39.934Z,100762.94
2019-01-19T23:54:27.359Z,100760.77
2019-01-19T23:57:14.617Z,100765.45
